Almont, CO

3:41 AM MDT on August 22, 2014 (GMT -0600)
Gunnison County | Change Station
CLOSE
Current Station
Airport
Location: Gunnison,
Elevation: 7674 ft
Nearby Weather Stations

Elev 7674 ft 38.53 °N, 106.93 °W | Updated 6 minutes ago

Scattered Clouds
Scattered Clouds
55 °F
Feels Like 55 °F
N
0
Wind Variable Wind from North

Today
High -- | Low -- °F
--% Chance of Precip.
Yesterday
High -- | Low -- °F
Precip. -- in
6:26 AM 7:51 PM
Waning Crescent, 9% visible
Pressure 30.32 in
Visibility 10.0 miles
Clouds Scattered Clouds 11000 ft
Dew Point 41 °F
Humidity 58%
Rainfall 0.00 in
Snow Depth 0 in
UV 0 out of 12
Pollen 10.10 out of 12
Air Quality Not available.
Flu Activity Not available.
METAR KGUC 220935Z AUTO 00000KT 10SM SCT110 13/05 A3032 RMK AO1

More Conditions Fewer Conditions

Pressure 30.32 in
Visibility 10.0 miles
Clouds Scattered Clouds 11000 ft
Dew Point 41 °F
Humidity 58%
Rainfall 0.00 in
Snow Depth 0 in
UV 0 out of 12
Pollen 10.10 out of 12
Air Quality Not available.
Flu Activity Not available.
METAR KGUC 220935Z AUTO 00000KT 10SM SCT110 13/05 A3032 RMK AO1

More Conditions Fewer Conditions

10-Day Weather Forecast

Almanac

Astronomy

Aug. 22, 2014 Rise Set
Actual Time 6:26 AM MDT 7:51 PM MDT
Civil Twilight 5:58 AM MDT 8:19 PM MDT
Nautical Twilight 5:25 AM MDT 8:52 PM MDT
Astronomical Twilight 4:50 AM MDT 9:27 PM MDT
Moon 3:52 AM MDT 6:01 PM MDT
Length of Visible Light 14h 20m
Length of Day
13h 24m
Tomorrow will be 2m 19s shorter.
Waning Crescent, 9% of the Moon is Illuminated
Today
Waning Crescent
Aug 25
New
Sep 2
First Quarter
Sep 8
Full
Sep 15
Last Quarter

Today's Extremes

State Highs State Lows

Community

WunderPhotos

Upload Photos

1,746,146 photos uploaded!

Nearby

Snow Depth

Station Depth Elevation
Park Cone 0 in 9600 ft
Independence Pass 189 in 10600 ft
Brumley 0 in 10600 ft
Porphyry Creek 0 in 10760 ft
Schofield Pass 0 in 10700 ft

Earthquake Activity

City Distance Mag. Time & Date
No recent earthquake activity has been reported nearby.
Minimum magnitude displayed is 2.5.

Coastal Water Temperatures

Place Temperature
No Stations Reporting

Nearby Weather Stations